sensor_id;sensor_type;location;lat;lon;timestamp;P1;durP1;ratioP1;P2;durP2;ratioP2
52342;SDS011;38277;51.972;4.624;2022-08-03T00:03:58;6.7;;;2.0;;
52342;SDS011;38277;51.972;4.624;2022-08-03T00:08:21;8.2;;;2.2;;
52342;SDS011;38277;51.972;4.624;2022-08-03T00:17:17;8.6;;;2.1;;
52342;SDS011;38277;51.972;4.624;2022-08-03T00:21:58;4.5;;;2.1;;
52342;SDS011;38277;51.972;4.624;2022-08-03T00:26:03;7.8;;;2.7;;
52342;SDS011;38277;51.972;4.624;2022-08-03T00:31:10;6.4;;;2.1;;
52342;SDS011;38277;51.972;4.624;2022-08-03T00:35:14;13.5;;;2.7;;
52342;SDS011;38277;51.972;4.624;2022-08-03T00:39:59;6.5;;;2.0;;
52342;SDS011;38277;51.972;4.624;2022-08-03T00:44:14;4.7;;;2.4;;
52342;SDS011;38277;51.972;4.624;2022-08-03T00:49:13;9.2;;;2.5;;
52342;SDS011;38277;51.972;4.624;2022-08-03T00:53:17;9.0;;;1.8;;
52342;SDS011;38277;51.972;4.624;2022-08-03T00:58:00;6.8;;;1.8;;
52342;SDS011;38277;51.972;4.624;2022-08-03T01:01:55;7.0;;;2.6;;
52342;SDS011;38277;51.972;4.624;2022-08-03T01:06:40;7.2;;;1.9;;
52342;SDS011;38277;51.972;4.624;2022-08-03T01:11:14;9.3;;;2.1;;
52342;SDS011;38277;51.972;4.624;2022-08-03T01:16:09;7.2;;;2.5;;
52342;SDS011;38277;51.972;4.624;2022-08-03T01:20:12;6.3;;;2.3;;
52342;SDS011;38277;51.972;4.624;2022-08-03T01:30:12;7.4;;;2.2;;
52342;SDS011;38277;51.972;4.624;2022-08-03T01:34:14;7.3;;;2.0;;
52342;SDS011;38277;51.972;4.624;2022-08-03T01:38:02;6.9;;;2.2;;
52342;SDS011;38277;51.972;4.624;2022-08-03T01:42:48;6.6;;;1.8;;
52342;SDS011;38277;51.972;4.624;2022-08-03T01:46:59;5.6;;;1.8;;
52342;SDS011;38277;51.972;4.624;2022-08-03T01:52:09;7.9;;;2.8;;
52342;SDS011;38277;51.972;4.624;2022-08-03T01:56:12;12.7;;;3.4;;
52342;SDS011;38277;51.972;4.624;2022-08-03T02:05:09;6.5;;;2.2;;
52342;SDS011;38277;51.972;4.624;2022-08-03T02:10:15;9.2;;;3.4;;
52342;SDS011;38277;51.972;4.624;2022-08-03T02:14:21;7.4;;;2.1;;
52342;SDS011;38277;51.972;4.624;2022-08-03T02:18:47;8.8;;;2.6;;
52342;SDS011;38277;51.972;4.624;2022-08-03T02:23:11;8.5;;;2.2;;
52342;SDS011;38277;51.972;4.624;2022-08-03T02:28:09;7.9;;;2.2;;
52342;SDS011;38277;51.972;4.624;2022-08-03T02:32:13;8.7;;;2.2;;
52342;SDS011;38277;51.972;4.624;2022-08-03T02:36:47;7.8;;;2.5;;
52342;SDS011;38277;51.972;4.624;2022-08-03T02:41:14;9.3;;;2.9;;
52342;SDS011;38277;51.972;4.624;2022-08-03T02:45:59;10.5;;;3.3;;
52342;SDS011;38277;51.972;4.624;2022-08-03T02:50:12;11.2;;;4.4;;
52342;SDS011;38277;51.972;4.624;2022-08-03T02:54:57;19.2;;;7.8;;
52342;SDS011;38277;51.972;4.624;2022-08-03T02:59:00;16.2;;;7.6;;
52342;SDS011;38277;51.972;4.624;2022-08-03T03:03:47;15.9;;;7.7;;
52342;SDS011;38277;51.972;4.624;2022-08-03T03:08:15;18.1;;;8.1;;
52342;SDS011;38277;51.972;4.624;2022-08-03T03:17:00;14.9;;;5.2;;
52342;SDS011;38277;51.972;4.624;2022-08-03T03:21:55;8.5;;;3.8;;
52342;SDS011;38277;51.972;4.624;2022-08-03T03:30:43;12.0;;;3.2;;
52342;SDS011;38277;51.972;4.624;2022-08-03T03:35:05;10.2;;;2.7;;
52342;SDS011;38277;51.972;4.624;2022-08-03T03:39:45;11.1;;;3.4;;
52342;SDS011;38277;51.972;4.624;2022-08-03T03:43:56;9.5;;;2.6;;
52342;SDS011;38277;51.972;4.624;2022-08-03T03:48:33;9.2;;;2.7;;
52342;SDS011;38277;51.972;4.624;2022-08-03T03:53:14;11.8;;;2.9;;
52342;SDS011;38277;51.972;4.624;2022-08-03T03:57:43;6.7;;;2.2;;
52342;SDS011;38277;51.972;4.624;2022-08-03T04:07:10;9.8;;;2.9;;
52342;SDS011;38277;51.972;4.624;2022-08-03T04:11:17;11.1;;;3.3;;
52342;SDS011;38277;51.972;4.624;2022-08-03T04:15:32;10.4;;;2.7;;
52342;SDS011;38277;51.972;4.624;2022-08-03T04:25:13;9.3;;;3.8;;
52342;SDS011;38277;51.972;4.624;2022-08-03T04:28:59;13.6;;;4.0;;
52342;SDS011;38277;51.972;4.624;2022-08-03T04:33:30;11.6;;;3.1;;
52342;SDS011;38277;51.972;4.624;2022-08-03T04:43:17;7.5;;;2.3;;
52342;SDS011;38277;51.972;4.624;2022-08-03T04:46:58;9.8;;;3.0;;
52342;SDS011;38277;51.972;4.624;2022-08-03T04:51:34;5.3;;;2.3;;
52342;SDS011;38277;51.972;4.624;2022-08-03T04:56:04;9.7;;;2.6;;
52342;SDS011;38277;51.972;4.624;2022-08-03T05:00:36;12.8;;;3.3;;
52342;SDS011;38277;51.972;4.624;2022-08-03T05:04:53;10.7;;;2.8;;
52342;SDS011;38277;51.972;4.624;2022-08-03T05:09:24;14.9;;;3.5;;
52342;SDS011;38277;51.972;4.624;2022-08-03T05:14:06;11.6;;;2.6;;
52342;SDS011;38277;51.972;4.624;2022-08-03T05:18:48;9.5;;;3.0;;
52342;SDS011;38277;51.972;4.624;2022-08-03T05:22:58;10.4;;;3.1;;
52342;SDS011;38277;51.972;4.624;2022-08-03T05:27:34;16.0;;;3.3;;
52342;SDS011;38277;51.972;4.624;2022-08-03T05:31:56;8.7;;;3.5;;
52342;SDS011;38277;51.972;4.624;2022-08-03T05:36:51;14.7;;;4.3;;
52342;SDS011;38277;51.972;4.624;2022-08-03T05:41:13;12.8;;;3.2;;
52342;SDS011;38277;51.972;4.624;2022-08-03T05:45:35;13.3;;;4.3;;
52342;SDS011;38277;51.972;4.624;2022-08-03T05:54:38;8.8;;;3.2;;
52342;SDS011;38277;51.972;4.624;2022-08-03T05:59:05;13.6;;;4.7;;
52342;SDS011;38277;51.972;4.624;2022-08-03T06:03:41;15.4;;;5.9;;
52342;SDS011;38277;51.972;4.624;2022-08-03T06:12:53;13.7;;;5.5;;
52342;SDS011;38277;51.972;4.624;2022-08-03T06:17:00;20.5;;;5.7;;
52342;SDS011;38277;51.972;4.624;2022-08-03T06:21:44;18.9;;;7.6;;
52342;SDS011;38277;51.972;4.624;2022-08-03T06:30:51;18.0;;;6.7;;
52342;SDS011;38277;51.972;4.624;2022-08-03T06:34:58;14.5;;;6.2;;
52342;SDS011;38277;51.972;4.624;2022-08-03T06:39:29;19.3;;;7.0;;
52342;SDS011;38277;51.972;4.624;2022-08-03T06:44:22;16.7;;;6.4;;
52342;SDS011;38277;51.972;4.624;2022-08-03T06:48:50;13.4;;;5.6;;
52342;SDS011;38277;51.972;4.624;2022-08-03T06:53:20;19.0;;;6.8;;
52342;SDS011;38277;51.972;4.624;2022-08-03T06:57:24;16.7;;;7.0;;
52342;SDS011;38277;51.972;4.624;2022-08-03T07:06:42;18.1;;;8.8;;
52342;SDS011;38277;51.972;4.624;2022-08-03T07:11:01;18.6;;;8.3;;
52342;SDS011;38277;51.972;4.624;2022-08-03T07:15:45;18.6;;;8.5;;
52342;SDS011;38277;51.972;4.624;2022-08-03T07:24:44;19.8;;;10.3;;
52342;SDS011;38277;51.972;4.624;2022-08-03T07:29:06;25.4;;;11.2;;
52342;SDS011;38277;51.972;4.624;2022-08-03T07:34:11;24.8;;;12.0;;
52342;SDS011;38277;51.972;4.624;2022-08-03T07:42:28;22.3;;;11.4;;
52342;SDS011;38277;51.972;4.624;2022-08-03T07:46:53;18.6;;;10.5;;
52342;SDS011;38277;51.972;4.624;2022-08-03T07:51:42;17.8;;;9.1;;
52342;SDS011;38277;51.972;4.624;2022-08-03T08:00:24;25.1;;;10.4;;
52342;SDS011;38277;51.972;4.624;2022-08-03T08:05:14;19.0;;;9.6;;
52342;SDS011;38277;51.972;4.624;2022-08-03T08:09:40;18.1;;;9.5;;
52342;SDS011;38277;51.972;4.624;2022-08-03T08:19:07;16.1;;;8.9;;
52342;SDS011;38277;51.972;4.624;2022-08-03T08:22:54;24.0;;;10.1;;
52342;SDS011;38277;51.972;4.624;2022-08-03T08:27:40;21.1;;;9.4;;
52342;SDS011;38277;51.972;4.624;2022-08-03T08:32:19;15.8;;;8.0;;
52342;SDS011;38277;51.972;4.624;2022-08-03T08:36:48;17.3;;;7.7;;
52342;SDS011;38277;51.972;4.624;2022-08-03T08:40:55;13.8;;;7.3;;
52342;SDS011;38277;51.972;4.624;2022-08-03T08:45:55;26.0;;;8.7;;
52342;SDS011;38277;51.972;4.624;2022-08-03T08:50:00;20.4;;;8.5;;
52342;SDS011;38277;51.972;4.624;2022-08-03T08:55:09;19.0;;;8.1;;
52342;SDS011;38277;51.972;4.624;2022-08-03T08:59:13;18.0;;;8.6;;
52342;SDS011;38277;51.972;4.624;2022-08-03T09:03:54;15.1;;;7.4;;
52342;SDS011;38277;51.972;4.624;2022-08-03T09:17:12;20.8;;;9.4;;
52342;SDS011;38277;51.972;4.624;2022-08-03T09:22:17;18.4;;;8.0;;
52342;SDS011;38277;51.972;4.624;2022-08-03T09:26:22;14.0;;;6.7;;
52342;SDS011;38277;51.972;4.624;2022-08-03T09:30:57;13.4;;;7.1;;
52342;SDS011;38277;51.972;4.624;2022-08-03T09:34:55;15.0;;;8.5;;
52342;SDS011;38277;51.972;4.624;2022-08-03T09:40:10;13.3;;;7.1;;
52342;SDS011;38277;51.972;4.624;2022-08-03T09:44:14;16.2;;;7.1;;
52342;SDS011;38277;51.972;4.624;2022-08-03T09:48:51;15.3;;;7.4;;
52342;SDS011;38277;51.972;4.624;2022-08-03T09:52:53;15.5;;;8.3;;
52342;SDS011;38277;51.972;4.624;2022-08-03T09:58:10;16.3;;;6.9;;
52342;SDS011;38277;51.972;4.624;2022-08-03T10:02:26;13.4;;;5.9;;
52342;SDS011;38277;51.972;4.624;2022-08-03T10:11:29;16.5;;;7.2;;
52342;SDS011;38277;51.972;4.624;2022-08-03T10:16:07;12.4;;;5.5;;
52342;SDS011;38277;51.972;4.624;2022-08-03T10:20:01;16.0;;;6.5;;
52342;SDS011;38277;51.972;4.624;2022-08-03T10:24:27;16.7;;;7.0;;
52342;SDS011;38277;51.972;4.624;2022-08-03T10:29:19;13.9;;;5.5;;
52342;SDS011;38277;51.972;4.624;2022-08-03T10:33:58;18.2;;;5.9;;
52342;SDS011;38277;51.972;4.624;2022-08-03T10:38:09;16.1;;;5.9;;
52342;SDS011;38277;51.972;4.624;2022-08-03T10:43:08;11.3;;;4.5;;
52342;SDS011;38277;51.972;4.624;2022-08-03T10:47:07;13.1;;;5.8;;
52342;SDS011;38277;51.972;4.624;2022-08-03T10:51:55;11.2;;;5.5;;
52342;SDS011;38277;51.972;4.624;2022-08-03T10:56:13;14.3;;;6.1;;
52342;SDS011;38277;51.972;4.624;2022-08-03T11:00:48;13.2;;;5.3;;
52342;SDS011;38277;51.972;4.624;2022-08-03T11:05:47;14.5;;;5.3;;
52342;SDS011;38277;51.972;4.624;2022-08-03T11:14:20;10.0;;;4.3;;
52342;SDS011;38277;51.972;4.624;2022-08-03T11:22:53;11.9;;;3.9;;
52342;SDS011;38277;51.972;4.624;2022-08-03T11:28:27;12.8;;;3.7;;
52342;SDS011;38277;51.972;4.624;2022-08-03T11:32:12;12.6;;;3.7;;
52342;SDS011;38277;51.972;4.624;2022-08-03T11:37:23;9.8;;;4.0;;
52342;SDS011;38277;51.972;4.624;2022-08-03T11:41:35;9.5;;;3.3;;
52342;SDS011;38277;51.972;4.624;2022-08-03T11:45:56;14.0;;;4.5;;
52342;SDS011;38277;51.972;4.624;2022-08-03T11:50:12;12.6;;;4.0;;
52342;SDS011;38277;51.972;4.624;2022-08-03T11:55:04;11.4;;;3.7;;
52342;SDS011;38277;51.972;4.624;2022-08-03T11:58:58;12.0;;;3.3;;
52342;SDS011;38277;51.972;4.624;2022-08-03T12:04:06;12.6;;;3.9;;
52342;SDS011;38277;51.972;4.624;2022-08-03T12:17:07;10.6;;;3.2;;
52342;SDS011;38277;51.972;4.624;2022-08-03T12:22:02;6.5;;;2.2;;
52342;SDS011;38277;51.972;4.624;2022-08-03T12:26:16;7.9;;;2.4;;
52342;SDS011;38277;51.972;4.624;2022-08-03T12:35:35;7.5;;;2.4;;
52342;SDS011;38277;51.972;4.624;2022-08-03T12:39:59;6.3;;;2.1;;
52342;SDS011;38277;51.972;4.624;2022-08-03T12:44:05;8.6;;;2.8;;
52342;SDS011;38277;51.972;4.624;2022-08-03T12:49:07;12.1;;;2.3;;
52342;SDS011;38277;51.972;4.624;2022-08-03T12:52:54;7.1;;;2.4;;
52342;SDS011;38277;51.972;4.624;2022-08-03T13:02:12;7.4;;;2.2;;
52342;SDS011;38277;51.972;4.624;2022-08-03T13:11:18;8.5;;;2.3;;
52342;SDS011;38277;51.972;4.624;2022-08-03T13:15:51;6.7;;;1.9;;
52342;SDS011;38277;51.972;4.624;2022-08-03T13:19:54;9.9;;;2.3;;
52342;SDS011;38277;51.972;4.624;2022-08-03T13:29:20;6.8;;;1.7;;
52342;SDS011;38277;51.972;4.624;2022-08-03T13:38:04;4.7;;;1.8;;
52342;SDS011;38277;51.972;4.624;2022-08-03T13:42:51;8.1;;;1.7;;
52342;SDS011;38277;51.972;4.624;2022-08-03T13:46:57;5.6;;;1.9;;
52342;SDS011;38277;51.972;4.624;2022-08-03T13:51:36;4.9;;;1.8;;
52342;SDS011;38277;51.972;4.624;2022-08-03T13:56:15;5.8;;;1.6;;
52342;SDS011;38277;51.972;4.624;2022-08-03T14:00:46;5.3;;;1.7;;
52342;SDS011;38277;51.972;4.624;2022-08-03T14:05:05;4.2;;;1.5;;
52342;SDS011;38277;51.972;4.624;2022-08-03T14:09:39;5.6;;;1.5;;
52342;SDS011;38277;51.972;4.624;2022-08-03T14:14:10;5.6;;;2.0;;
52342;SDS011;38277;51.972;4.624;2022-08-03T14:18:24;6.2;;;1.8;;
52342;SDS011;38277;51.972;4.624;2022-08-03T14:22:58;5.1;;;1.5;;
52342;SDS011;38277;51.972;4.624;2022-08-03T14:27:41;5.1;;;1.3;;
52342;SDS011;38277;51.972;4.624;2022-08-03T14:32:15;3.9;;;1.3;;
52342;SDS011;38277;51.972;4.624;2022-08-03T14:36:41;5.5;;;1.7;;
52342;SDS011;38277;51.972;4.624;2022-08-03T14:41:01;5.1;;;1.3;;
52342;SDS011;38277;51.972;4.624;2022-08-03T14:45:42;4.6;;;1.3;;
52342;SDS011;38277;51.972;4.624;2022-08-03T14:50:18;4.1;;;1.3;;
52342;SDS011;38277;51.972;4.624;2022-08-03T14:54:46;4.1;;;1.3;;
52342;SDS011;38277;51.972;4.624;2022-08-03T14:59:01;4.1;;;1.4;;
52342;SDS011;38277;51.972;4.624;2022-08-03T15:03:23;4.6;;;1.7;;
52342;SDS011;38277;51.972;4.624;2022-08-03T15:08:21;7.0;;;1.8;;
52342;SDS011;38277;51.972;4.624;2022-08-03T15:12:28;4.5;;;1.8;;
52342;SDS011;38277;51.972;4.624;2022-08-03T15:17:03;7.7;;;1.7;;
52342;SDS011;38277;51.972;4.624;2022-08-03T15:25:54;7.5;;;1.9;;
52342;SDS011;38277;51.972;4.624;2022-08-03T15:30:31;4.9;;;1.0;;
52342;SDS011;38277;51.972;4.624;2022-08-03T15:35:22;3.3;;;1.1;;
52342;SDS011;38277;51.972;4.624;2022-08-03T15:39:51;3.7;;;1.4;;
52342;SDS011;38277;51.972;4.624;2022-08-03T15:43:54;3.6;;;1.4;;
52342;SDS011;38277;51.972;4.624;2022-08-03T15:48:47;4.3;;;1.4;;
52342;SDS011;38277;51.972;4.624;2022-08-03T15:53:04;4.3;;;1.5;;
52342;SDS011;38277;51.972;4.624;2022-08-03T15:57:23;3.6;;;1.2;;
52342;SDS011;38277;51.972;4.624;2022-08-03T16:02:08;2.7;;;1.1;;
52342;SDS011;38277;51.972;4.624;2022-08-03T16:06:44;4.3;;;1.3;;
52342;SDS011;38277;51.972;4.624;2022-08-03T16:11:17;2.0;;;1.2;;
52342;SDS011;38277;51.972;4.624;2022-08-03T16:15:36;3.3;;;1.5;;
52342;SDS011;38277;51.972;4.624;2022-08-03T16:20:20;2.5;;;1.0;;
52342;SDS011;38277;51.972;4.624;2022-08-03T16:24:36;2.5;;;1.0;;
52342;SDS011;38277;51.972;4.624;2022-08-03T16:29:36;5.1;;;1.7;;
52342;SDS011;38277;51.972;4.624;2022-08-03T16:33:40;4.2;;;1.2;;
52342;SDS011;38277;51.972;4.624;2022-08-03T16:38:21;3.3;;;1.3;;
52342;SDS011;38277;51.972;4.624;2022-08-03T16:42:50;4.7;;;1.5;;
52342;SDS011;38277;51.972;4.624;2022-08-03T16:47:12;4.7;;;1.6;;
52342;SDS011;38277;51.972;4.624;2022-08-03T16:51:49;3.4;;;1.4;;
52342;SDS011;38277;51.972;4.624;2022-08-03T16:56:10;4.0;;;1.6;;
52342;SDS011;38277;51.972;4.624;2022-08-03T17:00:24;4.8;;;1.4;;
52342;SDS011;38277;51.972;4.624;2022-08-03T17:05:30;6.2;;;1.4;;
52342;SDS011;38277;51.972;4.624;2022-08-03T17:09:25;6.8;;;2.1;;
52342;SDS011;38277;51.972;4.624;2022-08-03T17:14:08;4.3;;;1.7;;
52342;SDS011;38277;51.972;4.624;2022-08-03T17:18:27;2.9;;;1.2;;
52342;SDS011;38277;51.972;4.624;2022-08-03T17:23:02;4.1;;;1.4;;
52342;SDS011;38277;51.972;4.624;2022-08-03T17:27:41;3.5;;;1.1;;
52342;SDS011;38277;51.972;4.624;2022-08-03T17:32:21;3.1;;;1.3;;
52342;SDS011;38277;51.972;4.624;2022-08-03T17:36:52;3.3;;;1.3;;
52342;SDS011;38277;51.972;4.624;2022-08-03T17:41:13;3.4;;;1.4;;
52342;SDS011;38277;51.972;4.624;2022-08-03T17:45:46;8.5;;;2.5;;
52342;SDS011;38277;51.972;4.624;2022-08-03T17:50:16;4.2;;;1.5;;
52342;SDS011;38277;51.972;4.624;2022-08-03T17:55:06;4.6;;;1.6;;
52342;SDS011;38277;51.972;4.624;2022-08-03T17:59:28;2.7;;;1.3;;
52342;SDS011;38277;51.972;4.624;2022-08-03T18:04:02;3.3;;;1.5;;
52342;SDS011;38277;51.972;4.624;2022-08-03T18:07:58;2.9;;;1.3;;
52342;SDS011;38277;51.972;4.624;2022-08-03T18:17:41;2.3;;;1.2;;
52342;SDS011;38277;51.972;4.624;2022-08-03T18:21:23;2.8;;;1.5;;
52342;SDS011;38277;51.972;4.624;2022-08-03T18:26:08;2.9;;;1.4;;
52342;SDS011;38277;51.972;4.624;2022-08-03T18:30:25;2.9;;;1.4;;
52342;SDS011;38277;51.972;4.624;2022-08-03T18:35:05;4.5;;;1.4;;
52342;SDS011;38277;51.972;4.624;2022-08-03T18:39:23;3.0;;;1.3;;
52342;SDS011;38277;51.972;4.624;2022-08-03T18:43:54;4.2;;;1.3;;
52342;SDS011;38277;51.972;4.624;2022-08-03T18:49:02;3.9;;;1.3;;
52342;SDS011;38277;51.972;4.624;2022-08-03T18:53:32;3.3;;;1.6;;
52342;SDS011;38277;51.972;4.624;2022-08-03T18:57:42;2.0;;;1.4;;
52342;SDS011;38277;51.972;4.624;2022-08-03T19:02:11;4.9;;;2.1;;
52342;SDS011;38277;51.972;4.624;2022-08-03T19:06:35;4.4;;;1.5;;
52342;SDS011;38277;51.972;4.624;2022-08-03T19:11:12;2.9;;;1.3;;
52342;SDS011;38277;51.972;4.624;2022-08-03T19:15:41;2.6;;;1.4;;
52342;SDS011;38277;51.972;4.624;2022-08-03T19:20:01;2.3;;;1.2;;
52342;SDS011;38277;51.972;4.624;2022-08-03T19:24:42;3.9;;;1.4;;
52342;SDS011;38277;51.972;4.624;2022-08-03T19:29:17;2.5;;;1.2;;
52342;SDS011;38277;51.972;4.624;2022-08-03T19:33:26;3.1;;;1.4;;
52342;SDS011;38277;51.972;4.624;2022-08-03T19:37:55;3.4;;;1.4;;
52342;SDS011;38277;51.972;4.624;2022-08-03T19:42:32;3.5;;;1.3;;
52342;SDS011;38277;51.972;4.624;2022-08-03T19:47:09;2.2;;;1.2;;
52342;SDS011;38277;51.972;4.624;2022-08-03T19:51:38;3.4;;;1.6;;
52342;SDS011;38277;51.972;4.624;2022-08-03T19:56:21;3.0;;;1.6;;
52342;SDS011;38277;51.972;4.624;2022-08-03T20:05:24;5.3;;;2.1;;
52342;SDS011;38277;51.972;4.624;2022-08-03T20:09:51;3.6;;;1.9;;
52342;SDS011;38277;51.972;4.624;2022-08-03T20:14:21;5.2;;;1.8;;
52342;SDS011;38277;51.972;4.624;2022-08-03T20:23:28;4.2;;;1.8;;
52342;SDS011;38277;51.972;4.624;2022-08-03T20:27:27;4.1;;;2.0;;
52342;SDS011;38277;51.972;4.624;2022-08-03T20:31:53;4.8;;;2.0;;
52342;SDS011;38277;51.972;4.624;2022-08-03T20:36:39;6.3;;;1.7;;
52342;SDS011;38277;51.972;4.624;2022-08-03T20:41:17;3.4;;;1.9;;
52342;SDS011;38277;51.972;4.624;2022-08-03T20:45:45;5.4;;;2.1;;
52342;SDS011;38277;51.972;4.624;2022-08-03T20:49:52;3.2;;;1.5;;
52342;SDS011;38277;51.972;4.624;2022-08-03T20:54:42;2.8;;;1.7;;
52342;SDS011;38277;51.972;4.624;2022-08-03T20:58:56;4.0;;;1.7;;
52342;SDS011;38277;51.972;4.624;2022-08-03T21:03:50;4.2;;;1.8;;
52342;SDS011;38277;51.972;4.624;2022-08-03T21:08:14;4.4;;;2.0;;
52342;SDS011;38277;51.972;4.624;2022-08-03T21:17:21;4.2;;;1.6;;
52342;SDS011;38277;51.972;4.624;2022-08-03T21:21:31;4.5;;;1.8;;
52342;SDS011;38277;51.972;4.624;2022-08-03T21:26:03;3.7;;;1.7;;
52342;SDS011;38277;51.972;4.624;2022-08-03T21:34:53;4.6;;;1.7;;
52342;SDS011;38277;51.972;4.624;2022-08-03T21:39:47;4.8;;;1.9;;
52342;SDS011;38277;51.972;4.624;2022-08-03T21:44:04;2.6;;;1.6;;
52342;SDS011;38277;51.972;4.624;2022-08-03T21:48:26;3.3;;;1.4;;
52342;SDS011;38277;51.972;4.624;2022-08-03T21:52:56;3.6;;;1.8;;
52342;SDS011;38277;51.972;4.624;2022-08-03T21:57:43;3.1;;;1.8;;
52342;SDS011;38277;51.972;4.624;2022-08-03T22:01:56;3.0;;;1.7;;
52342;SDS011;38277;51.972;4.624;2022-08-03T22:11:18;5.1;;;2.7;;
52342;SDS011;38277;51.972;4.624;2022-08-03T22:15:50;4.0;;;1.6;;
52342;SDS011;38277;51.972;4.624;2022-08-03T22:20:12;4.2;;;2.0;;
52342;SDS011;38277;51.972;4.624;2022-08-03T22:29:37;5.3;;;2.2;;
52342;SDS011;38277;51.972;4.624;2022-08-03T22:33:29;4.3;;;1.9;;
52342;SDS011;38277;51.972;4.624;2022-08-03T22:38:21;3.2;;;1.6;;
52342;SDS011;38277;51.972;4.624;2022-08-03T22:42:41;4.5;;;1.9;;
52342;SDS011;38277;51.972;4.624;2022-08-03T22:46:53;4.3;;;1.8;;
52342;SDS011;38277;51.972;4.624;2022-08-03T22:51:46;2.9;;;1.7;;
52342;SDS011;38277;51.972;4.624;2022-08-03T22:56:05;2.7;;;2.0;;
52342;SDS011;38277;51.972;4.624;2022-08-03T23:01:23;4.6;;;2.1;;
52342;SDS011;38277;51.972;4.624;2022-08-03T23:05:20;4.9;;;1.9;;
52342;SDS011;38277;51.972;4.624;2022-08-03T23:09:45;3.7;;;2.2;;
52342;SDS011;38277;51.972;4.624;2022-08-03T23:14:17;4.4;;;2.3;;
52342;SDS011;38277;51.972;4.624;2022-08-03T23:23:23;5.5;;;1.9;;
52342;SDS011;38277;51.972;4.624;2022-08-03T23:27:33;2.8;;;1.9;;
52342;SDS011;38277;51.972;4.624;2022-08-03T23:32:04;2.8;;;2.0;;
52342;SDS011;38277;51.972;4.624;2022-08-03T23:36:48;2.8;;;1.5;;
52342;SDS011;38277;51.972;4.624;2022-08-03T23:41:14;4.2;;;2.2;;
52342;SDS011;38277;51.972;4.624;2022-08-03T23:45:25;2.5;;;1.8;;
52342;SDS011;38277;51.972;4.624;2022-08-03T23:50:04;3.8;;;2.2;;
